Time;durP1;ratioP1;P1;durP2;ratioP2;P2;SDS_P1;SDS_P2;PMS_P1;PMS_P2;Temp;Humidity;BMP_temperature;BMP_pressure;BME280_temperature;BME280_humidity;BME280_pressure;Samples;Min_cycle;Max_cycle;Signal;HPM_P1;HPM_P2
2023/02/18 00:01:53;;;;;;;;;6.00;4.00;;;;;14.57;100.00;102574.56;5019579;28;58535;-78
2023/02/18 00:04:18;;;;;;;;;6.00;6.00;;;;;14.59;100.00;102586.13;5037114;28;48181;-75
2023/02/18 00:06:45;;;;;;;;;7.00;7.00;;;;;14.58;100.00;102571.94;5036493;28;45551;-75
2023/02/18 00:09:10;;;;;;;;;8.67;6.00;;;;;14.60;100.00;102586.19;5037829;28;46699;-76
2023/02/18 00:11:36;;;;;;;;;5.00;5.00;;;;;14.59;100.00;102583.47;5037621;28;45609;-76
2023/02/18 00:14:04;;;;;;;;;6.33;5.00;;;;;14.62;100.00;102586.19;5019457;28;45510;-74
2023/02/18 00:16:30;;;;;;;;;6.33;5.00;;;;;14.60;100.00;102583.50;5019649;28;47034;-76
2023/02/18 00:19:07;;;;;;;;;7.67;5.00;;;;;14.61;100.00;102572.00;4999837;28;48345;-77
2023/02/18 00:21:34;;;;;;;;;4.00;4.00;;;;;14.63;100.00;102580.91;5019556;28;45477;-75
2023/02/18 00:24:00;;;;;;;;;7.00;6.00;;;;;14.57;100.00;102570.13;5019861;28;45441;-75
2023/02/18 00:26:25;;;;;;;;;5.00;5.00;;;;;14.62;100.00;102583.53;5020203;28;45334;-75
2023/02/18 00:28:51;;;;;;;;;11.00;5.67;;;;;14.60;100.00;102578.19;5019980;28;47040;-75
2023/02/18 00:31:37;;;;;;;;;5.00;5.00;;;;;14.61;100.00;102574.66;5019392;28;45436;-75
2023/02/18 00:34:04;;;;;;;;;5.00;5.00;;;;;14.60;100.00;102575.53;5035020;28;45252;-76
2023/02/18 00:36:29;;;;;;;;;6.67;5.00;;;;;14.62;100.00;102578.22;5019819;28;45549;-78
2023/02/18 00:38:57;;;;;;;;;4.00;4.00;;;;;14.61;100.00;102574.66;5001911;28;48396;-75
2023/02/18 00:41:24;;;;;;;;;5.67;5.00;;;;;14.61;100.00;102587.97;5003145;28;45414;-75
2023/02/18 00:43:50;;;;;;;;;5.67;5.67;;;;;14.61;100.00;102579.97;5037217;28;45451;-76
2023/02/18 00:46:15;;;;;;;;;5.67;4.67;;;;;14.59;100.00;102579.03;5019429;28;53698;-74
2023/02/18 00:48:41;;;;;;;;;7.00;4.00;;;;;14.60;100.00;102582.63;5007363;28;46610;-75
2023/02/18 00:51:07;;;;;;;;;6.00;6.00;;;;;14.58;100.00;102574.59;5019178;28;45874;-74
2023/02/18 00:53:32;;;;;;;;;7.00;4.00;;;;;14.60;100.00;102580.84;5037262;28;45463;-75
2023/02/18 00:55:58;;;;;;;;;10.00;5.00;;;;;14.60;100.00;102577.31;5018646;28;45484;-74
2023/02/18 00:58:23;;;;;;;;;7.67;6.00;;;;;14.59;100.00;102573.72;5036634;28;46436;-75
2023/02/18 01:00:49;;;;;;;;;5.00;5.00;;;;;14.59;100.00;102573.72;5018997;28;45657;-76
2023/02/18 01:03:15;;;;;;;;;5.00;4.00;;;;;14.56;100.00;102563.03;5019138;28;45282;-78
2023/02/18 01:05:41;;;;;;;;;9.00;5.00;;;;;14.57;100.00;102564.81;5037189;28;45362;-76
2023/02/18 01:08:07;;;;;;;;;5.00;5.00;;;;;14.57;100.00;102562.16;5018338;28;46843;-75
2023/02/18 01:10:34;;;;;;;;;4.67;4.00;;;;;14.55;100.00;102555.03;5017720;28;45418;-74
2023/02/18 01:12:59;;;;;;;;;7.00;4.00;;;;;14.59;100.00;102562.19;5019248;28;45260;-75
2023/02/18 01:15:25;;;;;;;;;4.00;4.00;;;;;14.56;100.00;102568.34;5018434;28;45393;-77
2023/02/18 01:17:50;;;;;;;;;5.00;5.00;;;;;14.52;100.00;102555.84;5023396;28;46011;-77
2023/02/18 01:20:17;;;;;;;;;6.33;4.33;;;;;14.51;100.00;102547.84;5018505;28;45356;-75
2023/02/18 01:22:43;;;;;;;;;6.33;5.00;;;;;14.54;100.00;102553.22;5034700;28;45239;-76
2023/02/18 01:25:09;;;;;;;;;5.00;4.00;;;;;14.51;100.00;102556.72;5037080;28;45233;-76
2023/02/18 01:27:35;;;;;;;;;5.00;5.00;;;;;14.52;100.00;102555.84;4989360;28;48766;-74
2023/02/18 01:30:01;;;;;;;;;5.00;5.00;;;;;14.48;100.00;102543.34;5018520;28;45332;-76
2023/02/18 01:32:27;;;;;;;;;4.67;4.00;;;;;14.49;100.00;102542.50;5017892;28;45485;-78
2023/02/18 01:34:52;;;;;;;;;4.33;4.33;;;;;14.51;100.00;102546.09;5011235;28;45347;-75
2023/02/18 01:37:17;;;;;;;;;5.00;5.00;;;;;14.52;100.00;102550.53;5033822;28;62264;-76
2023/02/18 01:39:42;;;;;;;;;5.00;5.00;;;;;14.48;100.00;102548.66;5035019;28;57346;-76
2023/02/18 01:42:19;;;;;;;;;6.67;6.00;;;;;14.50;100.00;102538.97;5018279;28;51933;-76
2023/02/18 01:44:47;;;;;;;;;6.67;6.67;;;;;14.45;100.00;102540.59;5035322;28;45391;-77
2023/02/18 01:47:12;;;;;;;;;5.33;4.33;;;;;14.40;100.00;102535.19;5035856;28;46885;-77
2023/02/18 01:49:38;;;;;;;;;4.00;4.00;;;;;14.38;100.00;102531.59;5036350;28;45285;-76
2023/02/18 01:52:31;;;;;;;;;4.67;4.00;;;;;14.38;100.00;102536.91;5018273;28;50619;-77
2023/02/18 01:54:58;;;;;;;;;5.67;4.00;;;;;14.37;100.00;102539.50;5033845;28;45619;-76
2023/02/18 01:57:27;;;;;;;;;3.00;3.00;;;;;14.35;100.00;102536.84;5035762;28;46438;-74
2023/02/18 02:00:02;;;;;;;;;6.67;4.00;;;;;14.34;100.00;102536.81;5018430;28;45573;-76
2023/02/18 02:02:29;;;;;;;;;6.00;5.00;;;;;14.32;100.00;102531.44;5036270;28;45376;-75
2023/02/18 02:04:55;;;;;;;;;5.00;4.00;;;;;14.31;100.00;102523.44;5018112;28;45642;-75
2023/02/18 02:07:22;;;;;;;;;4.00;4.00;;;;;14.28;100.00;102526.94;5017290;28;63432;-76
2023/02/18 02:09:49;;;;;;;;;5.33;4.67;;;;;14.26;100.00;102518.00;5017794;28;45574;-75
2023/02/18 02:12:46;;;;;;;;;5.67;5.00;;;;;14.27;100.00;102526.88;5013852;28;45299;-77
2023/02/18 02:15:25;;;;;;;;;3.00;3.00;;;;;14.27;100.00;102527.78;5022543;28;45601;-76
2023/02/18 02:18:09;;;;;;;;;4.00;4.00;;;;;14.27;100.00;102516.25;5035500;28;46202;-76
2023/02/18 02:21:11;;;;;;;;;5.00;4.67;;;;;14.26;100.00;102514.47;5034693;28;45418;-74
2023/02/18 02:24:01;;;;;;;;;5.00;3.00;;;;;14.24;100.00;102511.78;5028999;28;45480;-75
2023/02/18 02:26:38;;;;;;;;;3.67;2.67;;;;;14.24;100.00;102505.56;5016326;28;45362;-76
2023/02/18 02:29:40;;;;;;;;;5.00;3.67;;;;;14.25;100.00;102502.03;5035581;28;46070;-75
2023/02/18 02:32:33;;;;;;;;;3.67;3.67;;;;;14.20;100.00;102501.94;5031963;28;45532;-76
2023/02/18 02:35:07;;;;;;;;;3.00;3.00;;;;;14.21;100.00;102503.72;5035515;28;45583;-75
2023/02/18 02:37:41;;;;;;;;;3.00;3.00;;;;;14.24;100.00;102502.91;5032212;28;45339;-77
2023/02/18 02:40:23;;;;;;;;;4.67;2.00;;;;;14.24;100.00;102501.16;5016557;28;46793;-75
2023/02/18 02:43:26;;;;;;;;;4.33;3.33;;;;;14.21;100.00;102495.75;5017310;28;45340;-74
2023/02/18 02:45:57;;;;;;;;;6.00;3.00;;;;;14.19;100.00;102492.19;5017826;28;45251;-74
2023/02/18 02:48:42;;;;;;;;;3.00;3.00;;;;;14.17;100.00;102488.59;5034987;28;45627;-75
2023/02/18 02:51:19;;;;;;;;;2.00;2.00;;;;;14.18;100.00;102485.06;5010136;28;45780;-75
2023/02/18 02:53:45;;;;;;;;;3.00;3.00;;;;;14.19;100.00;102483.31;5036611;28;45425;-75
2023/02/18 02:56:24;;;;;;;;;7.67;3.00;;;;;14.19;100.00;102481.56;5038722;28;45449;-75
2023/02/18 02:58:58;;;;;;;;;2.67;2.00;;;;;14.15;100.00;102479.69;5024846;28;45569;-75
2023/02/18 03:01:30;;;;;;;;;5.00;4.00;;;;;14.12;100.00;102483.19;5020701;28;45810;-75
2023/02/18 03:04:13;;;;;;;;;3.00;3.00;;;;;14.09;100.00;102475.13;5038534;28;45404;-75
2023/02/18 03:06:53;;;;;;;;;3.33;2.00;;;;;14.07;100.00;102494.56;5008187;28;45502;-77
2023/02/18 03:09:30;;;;;;;;;3.00;3.00;;;;;14.04;100.00;102475.88;5020720;28;45671;-76
2023/02/18 03:12:40;;;;;;;;;4.00;3.00;;;;;14.04;100.00;102475.88;5038939;28;46323;-75
2023/02/18 03:15:18;;;;;;;;;4.00;3.00;;;;;14.03;100.00;102474.09;5034525;28;45516;-75
2023/02/18 03:17:57;;;;;;;;;3.00;2.33;;;;;14.03;100.00;102475.00;5038407;28;45461;-73
2023/02/18 03:20:28;;;;;;;;;1.67;1.67;;;;;14.00;100.00;102469.59;5016657;28;45370;-74
2023/02/18 03:22:56;;;;;;;;;2.67;2.33;;;;;14.05;100.00;102461.75;5020520;28;46865;-74
2023/02/18 03:25:22;;;;;;;;;4.00;2.67;;;;;14.04;100.00;102468.81;5020777;28;45302;-77
2023/02/18 03:28:07;;;;;;;;;3.00;3.00;;;;;14.04;100.00;102471.47;5018268;28;51544;-76
2023/02/18 03:30:42;;;;;;;;;3.33;3.33;;;;;14.02;100.00;102467.91;5017717;28;45564;-75
2023/02/18 03:33:11;;;;;;;;;4.33;4.00;;;;;14.03;100.00;102467.03;5003406;28;47526;-75
2023/02/18 03:35:37;;;;;;;;;5.67;3.33;;;;;14.03;100.00;102458.16;5020505;28;45667;-76
2023/02/18 03:38:14;;;;;;;;;3.00;3.00;;;;;14.06;100.00;102466.19;5013214;28;45244;-76
2023/02/18 03:40:39;;;;;;;;;3.00;3.00;;;;;14.07;100.00;102460.94;5032572;28;45512;-76
2023/02/18 03:43:05;;;;;;;;;3.00;3.00;;;;;14.06;100.00;102463.53;5019999;28;45678;-76
2023/02/18 03:45:30;;;;;;;;;2.00;2.00;;;;;14.07;100.00;102466.25;5037745;28;59592;-74
2023/02/18 03:47:56;;;;;;;;;2.00;2.00;;;;;14.07;100.00;102466.25;5019665;28;55476;-76
2023/02/18 03:50:21;;;;;;;;;2.67;2.67;;;;;14.07;100.00;102457.38;5038928;28;45545;-76
2023/02/18 03:52:47;;;;;;;;;3.67;3.67;;;;;14.06;100.00;102453.81;5021221;28;54163;-77
2023/02/18 03:55:12;;;;;;;;;3.00;3.00;;;;;14.12;100.00;102461.03;5000819;28;46146;-74
2023/02/18 03:57:37;;;;;;;;;2.67;2.00;;;;;14.13;100.00;102466.38;5017636;28;45649;-75
2023/02/18 04:00:05;;;;;;;;;4.67;4.67;;;;;14.13;100.00;102461.06;5000345;28;45685;-75
2023/02/18 04:02:31;;;;;;;;;5.33;3.67;;;;;14.10;100.00;102460.97;5017872;28;45786;-76
2023/02/18 04:04:57;;;;;;;;;4.00;4.00;;;;;14.10;100.00;102473.38;5001535;28;45571;-74
2023/02/18 04:07:22;;;;;;;;;4.00;3.00;;;;;14.10;100.00;102470.72;4982768;28;45495;-75
2023/02/18 04:09:48;;;;;;;;;4.00;4.00;;;;;14.08;100.00;102468.03;5017238;28;45458;-76
2023/02/18 04:12:13;;;;;;;;;2.33;2.33;;;;;14.10;100.00;102476.91;4999623;28;56622;-74
2023/02/18 04:14:38;;;;;;;;;4.00;4.00;;;;;14.08;100.00;102473.34;4998219;28;45615;-78
2023/02/18 04:17:04;;;;;;;;;3.00;3.00;;;;;14.03;100.00;102474.09;5017745;28;45674;-75
2023/02/18 04:19:30;;;;;;;;;4.00;4.00;;;;;14.00;100.00;102466.03;4981459;28;45509;-75
2023/02/18 04:21:55;;;;;;;;;3.00;3.00;;;;;13.98;100.00;102471.34;4999265;28;60549;-76
2023/02/18 04:24:20;;;;;;;;;1.00;1.00;;;;;13.95;100.00;102462.38;4999680;28;58395;-75
2023/02/18 04:26:46;;;;;;;;;3.00;3.00;;;;;13.94;100.00;102468.56;5016870;28;52192;-75
2023/02/18 04:29:11;;;;;;;;;3.00;3.00;;;;;13.88;100.00;102464.00;4996648;28;48596;-75
2023/02/18 04:31:36;;;;;;;;;4.33;3.33;;;;;13.85;100.00;102461.31;5014004;28;48652;-77
2023/02/18 04:34:02;;;;;;;;;3.67;3.67;;;;;13.85;100.00;102464.84;4999927;28;45486;-76
2023/02/18 04:36:27;;;;;;;;;2.33;2.33;;;;;13.83;100.00;102463.00;4979764;28;57504;-75
2023/02/18 04:38:53;;;;;;;;;3.00;3.00;;;;;13.79;100.00;102477.94;5010983;28;51572;-77
2023/02/18 04:41:18;;;;;;;;;3.00;3.00;;;;;13.79;100.00;102474.41;5014778;28;64736;-75
2023/02/18 04:43:43;;;;;;;;;4.00;2.67;;;;;13.77;100.00;102471.72;5016683;28;60231;-75
2023/02/18 04:46:09;;;;;;;;;4.33;3.67;;;;;13.76;100.00;102456.66;5016325;28;55243;-75
2023/02/18 04:48:34;;;;;;;;;4.00;4.00;;;;;13.77;100.00;102461.09;5017612;28;45617;-75
2023/02/18 04:51:00;;;;;;;;;1.00;1.00;;;;;13.79;100.00;102455.81;5016572;28;53068;-76
2023/02/18 04:53:25;;;;;;;;;7.00;4.00;;;;;13.80;100.00;102462.94;5017205;28;46674;-75
2023/02/18 04:55:51;;;;;;;;;3.00;3.00;;;;;13.80;100.00;102457.63;4996738;28;45425;-74
2023/02/18 04:58:18;;;;;;;;;3.33;3.00;;;;;13.76;100.00;102455.75;4998276;28;45561;-76
2023/02/18 05:00:43;;;;;;;;;7.00;4.00;;;;;13.78;100.00;102454.03;4998827;28;45462;-75
2023/02/18 05:03:08;;;;;;;;;3.00;3.00;;;;;13.80;100.00;102457.63;5019560;28;60635;-78
2023/02/18 05:05:34;;;;;;;;;2.00;2.00;;;;;13.80;100.00;102457.63;5018772;28;49477;-77
2023/02/18 05:08:00;;;;;;;;;3.00;3.00;;;;;13.79;100.00;102451.41;5036795;28;45664;-77
2023/02/18 05:10:25;;;;;;;;;2.67;2.67;;;;;13.79;100.00;102453.16;5015861;28;45680;-76
2023/02/18 05:12:51;;;;;;;;;2.67;2.33;;;;;13.79;100.00;102459.38;5016991;28;56594;-74
2023/02/18 05:15:16;;;;;;;;;3.00;3.00;;;;;13.80;100.00;102466.50;4993245;28;53895;-76
2023/02/18 05:17:41;;;;;;;;;4.67;4.00;;;;;13.79;100.00;102455.81;5016110;28;46351;-75
2023/02/18 05:20:08;;;;;;;;;3.00;3.00;;;;;13.79;100.00;102477.06;5018559;28;47368;-76
2023/02/18 05:22:33;;;;;;;;;3.67;3.67;;;;;13.76;100.00;102461.06;5018633;28;45545;-75
2023/02/18 05:24:58;;;;;;;;;4.00;4.00;;;;;13.76;100.00;102466.38;5036600;28;50319;-77
2023/02/18 05:27:24;;;;;;;;;2.67;2.67;;;;;13.76;100.00;102472.59;5018355;28;46426;-75
2023/02/18 05:29:49;;;;;;;;;6.00;3.00;;;;;13.77;100.00;102478.78;5036253;28;62897;-76
2023/02/18 05:32:14;;;;;;;;;5.00;3.00;;;;;13.79;100.00;102466.44;5036219;28;45464;-76
2023/02/18 05:34:40;;;;;;;;;3.00;3.00;;;;;13.78;100.00;102468.19;5036897;28;45530;-76
2023/02/18 05:37:05;;;;;;;;;3.00;3.00;;;;;13.79;100.00;102469.09;5016208;28;45663;-76
2023/02/18 05:39:30;;;;;;;;;3.00;3.00;;;;;13.78;100.00;102464.66;5017802;28;60647;-75
2023/02/18 05:41:56;;;;;;;;;3.00;3.00;;;;;13.76;100.00;102480.56;5015160;28;54006;-77
2023/02/18 05:44:30;;;;;;;;;6.33;3.33;;;;;13.72;100.00;102459.19;5017570;28;57853;-76
2023/02/18 05:46:57;;;;;;;;;3.00;3.00;;;;;13.68;100.00;102463.53;5019177;28;45550;-76
2023/02/18 05:49:23;;;;;;;;;3.00;3.00;;;;;13.67;100.00;102458.19;5036238;28;46761;-76
2023/02/18 05:51:48;;;;;;;;;3.00;3.00;;;;;13.65;100.00;102457.25;5036035;28;45484;-75
2023/02/18 05:54:14;;;;;;;;;5.00;4.00;;;;;13.60;100.00;102452.72;5018918;28;45844;-75
2023/02/18 05:56:40;;;;;;;;;2.67;2.00;;;;;13.56;100.00;102449.97;5035887;28;45275;-76
2023/02/18 05:59:05;;;;;;;;;2.33;2.33;;;;;13.56;100.00;102455.28;5018285;28;46121;-75
2023/02/18 06:01:31;;;;;;;;;2.00;2.00;;;;;13.55;100.00;102453.47;4998575;28;45474;-76
2023/02/18 06:03:56;;;;;;;;;2.00;2.00;;;;;13.54;100.00;102441.06;5035862;28;45225;-75
2023/02/18 06:06:21;;;;;;;;;3.00;2.33;;;;;13.50;100.00;102448.06;5035294;28;49938;-78
2023/02/18 06:08:47;;;;;;;;;4.00;3.00;;;;;13.51;100.00;102452.50;5017992;28;46552;-77
2023/02/18 06:11:12;;;;;;;;;3.00;3.00;;;;;13.49;100.00;102443.63;5018054;28;45465;-75
2023/02/18 06:13:37;;;;;;;;;4.00;2.00;;;;;13.50;100.00;102449.81;5012302;28;55456;-76
2023/02/18 06:16:03;;;;;;;;;2.33;2.33;;;;;13.48;100.00;102441.81;5017646;28;45438;-75
2023/02/18 06:18:28;;;;;;;;;3.33;3.00;;;;;13.52;100.00;102450.75;5017854;28;47182;-76
2023/02/18 06:20:54;;;;;;;;;2.00;2.00;;;;;13.52;100.00;102450.75;5016908;28;55519;-75
2023/02/18 06:23:19;;;;;;;;;2.00;2.00;;;;;13.50;100.00;102450.72;5017963;28;45259;-74
2023/02/18 06:25:47;;;;;;;;;1.67;1.67;;;;;13.53;100.00;102450.81;5001172;28;45669;-76
2023/02/18 06:28:13;;;;;;;;;2.00;2.00;;;;;13.54;100.00;102452.59;5035070;28;45439;-75
2023/02/18 06:30:38;;;;;;;;;3.00;1.00;;;;;13.57;100.00;102451.75;4995313;28;55009;-75
2023/02/18 06:33:03;;;;;;;;;3.67;2.00;;;;;13.57;100.00;102449.09;5033163;28;45483;-76
2023/02/18 06:35:29;;;;;;;;;1.00;1.00;;;;;13.56;100.00;102437.59;5014692;28;45571;-76
2023/02/18 06:37:54;;;;;;;;;0.00;0.00;;;;;13.58;100.00;102435.88;5035173;28;53290;-76
2023/02/18 06:40:20;;;;;;;;;1.00;1.00;;;;;13.54;100.00;102435.78;5017498;28;50873;-76
2023/02/18 06:42:45;;;;;;;;;2.00;1.00;;;;;13.54;100.00;102436.66;5017202;28;45240;-75
2023/02/18 06:45:10;;;;;;;;;1.00;1.00;;;;;13.56;100.00;102444.66;5015217;28;50822;-74
2023/02/18 06:47:36;;;;;;;;;3.67;2.00;;;;;13.54;100.00;102447.28;5035093;28;46565;-75
2023/02/18 06:50:02;;;;;;;;;3.00;2.00;;;;;13.54;100.00;102446.38;5016759;28;57146;-74
2023/02/18 06:52:29;;;;;;;;;2.33;2.33;;;;;13.54;100.00;102441.97;5017837;28;45468;-76
2023/02/18 06:54:54;;;;;;;;;4.00;1.33;;;;;13.52;100.00;102440.13;5016918;28;45449;-75
2023/02/18 06:57:20;;;;;;;;;2.00;2.00;;;;;13.55;100.00;102446.41;5033369;28;46601;-75
2023/02/18 06:59:45;;;;;;;;;2.33;2.00;;;;;13.56;100.00;102431.38;4998333;28;60582;-76
2023/02/18 07:02:14;;;;;;;;;4.00;3.00;;;;;13.57;100.00;102435.81;5000062;28;55081;-77
2023/02/18 07:04:39;;;;;;;;;3.00;3.00;;;;;13.59;100.00;102442.97;5015556;28;45652;-77
2023/02/18 07:07:04;;;;;;;;;2.33;2.33;;;;;13.62;100.00;102452.75;5014030;28;54633;-75
2023/02/18 07:09:30;;;;;;;;;3.33;2.33;;;;;13.60;100.00;102442.13;4999580;28;58328;-79
2023/02/18 07:11:55;;;;;;;;;5.00;3.67;;;;;13.61;100.00;102443.00;5016967;28;45497;-76
2023/02/18 07:14:20;;;;;;;;;3.00;3.00;;;;;13.60;100.00;102439.47;5031979;28;46399;-75
2023/02/18 07:16:46;;;;;;;;;3.67;3.67;;;;;13.61;100.00;102427.97;5017148;28;46577;-76
2023/02/18 07:19:11;;;;;;;;;2.00;2.00;;;;;13.63;100.00;102430.66;5015770;28;58168;-77
2023/02/18 07:21:36;;;;;;;;;3.33;3.33;;;;;13.63;100.00;102420.97;5016510;28;52933;-76
2023/02/18 07:24:02;;;;;;;;;4.33;4.33;;;;;13.65;100.00;102444.00;5017120;28;45511;-76
2023/02/18 07:26:27;;;;;;;;;3.33;3.00;;;;;13.63;100.00;102434.25;5034212;28;47412;-75
2023/02/18 07:28:52;;;;;;;;;5.00;3.33;;;;;13.66;100.00;102440.47;5033448;28;58994;-76
2023/02/18 07:31:18;;;;;;;;;3.00;3.00;;;;;13.63;100.00;102443.94;4996205;28;45534;-77
2023/02/18 07:33:43;;;;;;;;;2.67;2.00;;;;;13.68;100.00;102452.00;5017080;28;46503;-75
2023/02/18 07:36:08;;;;;;;;;4.00;4.00;;;;;13.65;100.00;102446.66;5034779;28;60323;-75
2023/02/18 07:38:34;;;;;;;;;4.00;2.67;;;;;13.66;100.00;102440.47;5037774;28;56034;-76
2023/02/18 07:40:59;;;;;;;;;2.67;2.67;;;;;13.66;100.00;102446.66;5003641;28;45632;-76
2023/02/18 07:43:25;;;;;;;;;3.67;3.67;;;;;13.67;100.00;102453.78;5038967;28;45422;-76
2023/02/18 07:45:50;;;;;;;;;3.00;3.00;;;;;13.68;100.00;102449.34;5037758;28;46022;-77
2023/02/18 07:48:16;;;;;;;;;3.00;2.00;;;;;13.72;100.00;102449.47;5019933;28;46065;-77
2023/02/18 07:50:43;;;;;;;;;2.00;2.00;;;;;13.72;100.00;102448.56;5020973;28;45508;-76
2023/02/18 07:53:10;;;;;;;;;4.00;3.00;;;;;13.71;100.00;102446.78;5004416;28;45559;-77
2023/02/18 07:55:48;;;;;;;;;5.33;4.00;;;;;13.70;100.00;102448.56;5020707;28;46082;-76
2023/02/18 07:58:15;;;;;;;;;1.33;1.33;;;;;13.69;100.00;102440.53;5026981;28;45395;-75
2023/02/18 08:00:40;;;;;;;;;1.00;1.00;;;;;13.70;100.00;102448.56;5020357;28;45390;-77
2023/02/18 08:03:05;;;;;;;;;2.00;1.00;;;;;13.69;100.00;102462.69;5148395;22;54216;-75
2023/02/18 08:05:31;;;;;;;;;1.00;1.00;;;;;13.72;100.00;102459.19;5035967;28;48647;-75
2023/02/18 08:07:56;;;;;;;;;5.33;2.33;;;;;13.72;100.00;102460.09;5036331;28;57891;-76
2023/02/18 08:10:21;;;;;;;;;3.00;2.00;;;;;13.72;100.00;102465.41;5019430;28;47373;-77
2023/02/18 08:12:47;;;;;;;;;1.00;1.00;;;;;13.71;100.00;102473.34;5037051;28;45341;-76
2023/02/18 08:15:12;;;;;;;;;1.00;1.00;;;;;13.73;100.00;102469.84;5018942;28;55017;-77
2023/02/18 08:17:38;;;;;;;;;2.00;2.00;;;;;13.76;100.00;102475.25;5019481;28;45370;-75
2023/02/18 08:20:04;;;;;;;;;2.33;2.00;;;;;13.77;100.00;102461.09;5037962;28;49456;-77
2023/02/18 08:22:29;;;;;;;;;2.00;2.00;;;;;13.79;100.00;102474.41;5037256;28;45706;-75
2023/02/18 08:24:55;;;;;;;;;2.33;1.00;;;;;13.81;100.00;102473.59;5038128;28;46566;-76
2023/02/18 08:27:21;;;;;;;;;2.67;2.67;;;;;13.82;100.00;102485.09;5018619;28;45497;-76
2023/02/18 08:29:46;;;;;;;;;1.67;1.67;;;;;13.84;100.00;102483.38;5020426;28;45432;-75
2023/02/18 08:32:12;;;;;;;;;1.00;1.00;;;;;13.82;100.00;102478.03;5034393;28;50753;-74
2023/02/18 08:34:38;;;;;;;;;1.00;1.00;;;;;13.84;100.00;102486.03;5013817;28;46464;-74
2023/02/18 08:37:03;;;;;;;;;1.00;1.00;;;;;13.82;100.00;102479.81;5015194;28;45551;-77
2023/02/18 08:39:37;;;;;;;;;1.00;1.00;;;;;13.81;100.00;102486.88;5017602;28;46071;-74
2023/02/18 08:42:02;;;;;;;;;1.33;1.33;;;;;13.77;100.00;102484.09;4997277;28;45502;-75
2023/02/18 08:44:28;;;;;;;;;1.00;1.00;;;;;13.78;100.00;102481.47;5033994;28;45499;-72
2023/02/18 08:46:53;;;;;;;;;1.00;1.00;;;;;13.81;100.00;102483.31;5031873;28;61103;-72
2023/02/18 08:49:19;;;;;;;;;1.67;1.67;;;;;13.81;100.00;102485.97;5029605;28;45515;-70
2023/02/18 08:51:46;;;;;;;;;2.00;1.00;;;;;13.75;100.00;102484.06;5014721;28;45574;-70
2023/02/18 08:54:11;;;;;;;;;2.67;1.33;;;;;13.72;100.00;102491.94;5018577;28;46569;-69
2023/02/18 08:56:36;;;;;;;;;1.00;1.00;;;;;13.70;100.00;102493.69;5027461;28;45730;-70
2023/02/18 08:59:02;;;;;;;;;3.33;1.00;;;;;13.67;100.00;102490.03;5016945;28;45803;-70
2023/02/18 09:01:27;;;;;;;;;0.00;0.00;;;;;13.67;100.00;102490.94;5036550;28;46201;-69
2023/02/18 09:03:52;;;;;;;;;2.00;2.00;;;;;13.69;100.00;102494.53;5034253;28;45807;-72
2023/02/18 09:06:18;;;;;;;;;2.00;0.33;;;;;13.68;100.00;102484.75;5019005;28;45247;-70
2023/02/18 09:08:43;;;;;;;;;2.00;1.00;;;;;13.69;100.00;102485.66;5035128;28;52727;-71
2023/02/18 09:11:10;;;;;;;;;1.00;1.00;;;;;13.68;100.00;102481.22;5039691;28;45604;-71
2023/02/18 09:13:35;;;;;;;;;1.00;1.00;;;;;13.69;100.00;102485.66;5016267;28;47286;-72
2023/02/18 09:16:06;;;;;;;;;2.67;1.00;;;;;13.68;100.00;102482.09;5032554;28;51291;-71
2023/02/18 09:18:34;;;;;;;;;0.67;0.67;;;;;13.72;100.00;102489.28;5029284;28;45578;-72
2023/02/18 09:21:00;;;;;;;;;1.00;1.00;;;;;13.75;100.00;102488.50;5030744;28;45652;-71
2023/02/18 09:23:27;;;;;;;;;0.00;0.00;;;;;13.77;100.00;102508.00;5032130;28;46295;-70
2023/02/18 09:25:52;;;;;;;;;0.67;0.67;;;;;13.75;100.00;102504.41;5030813;28;45560;-72
2023/02/18 09:28:18;;;;;;;;;0.33;0.33;;;;;13.74;100.00;102491.97;5017300;28;45596;-71
2023/02/18 09:30:43;;;;;;;;;2.00;0.33;;;;;13.76;100.00;102503.56;5029156;28;45632;-73
2023/02/18 09:33:09;;;;;;;;;0.67;0.67;;;;;13.75;100.00;102494.69;5030117;28;46496;-72
2023/02/18 09:35:38;;;;;;;;;0.33;0.33;;;;;13.78;100.00;102497.41;5013362;28;55402;-71
2023/02/18 09:38:03;;;;;;;;;2.00;0.00;;;;;13.78;100.00;102505.38;5013546;28;45438;-71
2023/02/18 09:40:32;;;;;;;;;1.00;0.00;;;;;13.83;100.00;102503.72;5030269;28;54266;-72
2023/02/18 09:42:58;;;;;;;;;3.33;1.00;;;;;13.85;100.00;102506.44;5012421;28;45930;-73
2023/02/18 09:45:23;;;;;;;;;2.00;0.33;;;;;13.84;100.00;102501.97;5012178;28;45444;-73
2023/02/18 09:47:49;;;;;;;;;1.00;1.00;;;;;13.87;100.00;102513.56;4994471;28;51309;-74
2023/02/18 09:50:22;;;;;;;;;0.00;0.00;;;;;13.93;100.00;102507.50;5008674;28;45733;-74
2023/02/18 09:52:48;;;;;;;;;4.00;0.33;;;;;13.97;100.00;102504.06;5024997;28;46905;-75
2023/02/18 09:55:27;;;;;;;;;1.33;1.00;;;;;14.04;100.00;102500.69;5012398;28;46011;-74
2023/02/18 09:58:00;;;;;;;;;2.00;0.00;;;;;14.12;100.00;102507.09;5008942;28;45837;-75
2023/02/18 10:00:43;;;;;;;;;0.00;0.00;;;;;14.22;100.00;102509.94;5023466;28;45977;-72
2023/02/18 10:03:18;;;;;;;;;0.67;0.67;;;;;14.24;100.00;102506.47;5010056;28;46485;-72
2023/02/18 10:05:57;;;;;;;;;1.00;1.00;;;;;14.29;100.00;102509.22;5028650;28;45481;-71
2023/02/18 10:08:29;;;;;;;;;3.00;0.00;;;;;14.31;100.00;102512.81;5008975;28;45777;-73
2023/02/18 10:10:54;;;;;;;;;0.00;0.00;;;;;14.32;100.00;102503.97;5023343;28;45560;-73
2023/02/18 10:13:40;;;;;;;;;0.00;0.00;;;;;14.36;100.00;102514.69;5021197;28;46251;-73
2023/02/18 10:16:06;;;;;;;;;0.67;0.00;;;;;14.33;100.00;102509.34;5002309;28;50982;-73
2023/02/18 10:18:35;;;;;;;;;1.00;1.00;;;;;14.36;100.00;102509.38;5007959;28;53314;-74
2023/02/18 10:21:12;;;;;;;;;0.33;0.33;;;;;14.34;100.00;102512.88;5009197;28;46156;-75
2023/02/18 10:23:41;;;;;;;;;0.00;0.00;;;;;14.36;100.00;102514.69;5020464;28;46643;-73
2023/02/18 10:26:13;;;;;;;;;2.00;0.33;;;;;14.36;100.00;102513.81;5010860;28;45589;-74
2023/02/18 10:28:39;;;;;;;;;1.00;1.00;;;;;14.36;100.00;102527.09;5028578;28;45931;-74
2023/02/18 10:31:09;;;;;;;;;0.00;0.00;;;;;14.35;100.00;102517.34;5015114;28;45904;-74
2023/02/18 10:34:13;;;;;;;;;0.67;0.00;;;;;14.34;100.00;102519.09;5010469;28;46798;-75
2023/02/18 10:36:41;;;;;;;;;1.00;0.00;;;;;14.34;100.00;102527.06;5032103;28;45774;-74
2023/02/18 10:39:31;;;;;;;;;0.00;0.00;;;;;14.33;100.00;102513.75;5032195;28;45566;-75
2023/02/18 10:42:10;;;;;;;;;2.33;1.00;;;;;14.35;100.00;102514.69;5017613;28;45921;-74
2023/02/18 10:45:16;;;;;;;;;0.00;0.00;;;;;14.36;100.00;102516.47;5029549;28;46466;-75
2023/02/18 10:47:48;;;;;;;;;0.67;0.00;;;;;14.39;100.00;102514.78;4937360;28;45844;-76
2023/02/18 10:50:25;;;;;;;;;0.00;0.00;;;;;14.41;100.00;102513.03;5009068;28;46084;-77
2023/02/18 10:52:54;;;;;;;;;0.00;0.00;;;;;14.41;100.00;102518.38;5038875;22;45536;-76
2023/02/18 10:55:35;;;;;;;;;2.00;0.00;;;;;14.44;100.00;102509.56;5007617;22;46416;-76
2023/02/18 10:58:01;;;;;;;;;0.00;0.00;;;;;14.43;100.00;102513.06;4956101;28;45830;-74
2023/02/18 11:00:33;;;;;;;;;0.00;0.00;;;;;14.46;100.00;102517.56;4975523;28;45786;-75
2023/02/18 11:03:20;;;;;;;;;0.00;0.00;;;;;14.49;100.00;102513.28;4973166;28;45629;-74
2023/02/18 11:05:47;;;;;;;;;2.00;0.00;;;;;14.53;100.00;102515.09;4995524;28;47109;-75
2023/02/18 11:08:19;;;;;;;;;1.67;1.67;;;;;14.52;100.00;102523.94;4988189;28;45878;-75
2023/02/18 11:10:45;;;;;;;;;0.00;0.00;;;;;14.54;100.00;102513.34;4996254;28;46092;-75
2023/02/18 11:13:22;;;;;;;;;0.00;0.00;;;;;14.57;100.00;102518.72;4995031;28;45545;-76
2023/02/18 11:15:58;;;;;;;;;2.33;0.00;;;;;14.54;100.00;102511.59;4983368;28;46539;-75
2023/02/18 11:18:53;;;;;;;;;2.00;0.00;;;;;14.62;100.00;102520.63;4998055;28;45556;-75
2023/02/18 11:21:31;;;;;;;;;1.00;1.00;;;;;14.65;100.00;102509.19;4979242;28;45869;-75
2023/02/18 11:23:57;;;;;;;;;1.00;1.00;;;;;14.74;100.00;102519.09;5001171;28;48754;-75
2023/02/18 11:26:30;;;;;;;;;2.00;0.00;;;;;14.78;100.00;102526.28;4981142;28;48355;-73